Aktualne dane pomiarowe

Uwaga, wersja testowa! Automatyczne pobieranie danych za pomocą narzędzi lub skryptów to umożliwiających jest zabronione.

Dane meteo z obszaru Polski uzyskane na podstawie depesz SYNOP pobieranych co godzinę z NWS. Najedź myszką na symbol przedstawiony w tabeli, aby uzyskać informacje co do jego znaczenia. Prosimy pamiętać, że to testowa wersja strony, która jeszcze nie jest ukończona. Stworzono również jest krótki FAQ dotyczący korzystania z tej podstrony Anomalie temperatury w chwili obecnej odniesione są do okresu referencyjnego 1951-2016. Okres ten będzie później zmieniony na 1981-2010. Kliknij ikonę aby pobrać plik CSV. Kliknij ikonę aby wygenerować mapę synoptyczną dla danego terminu.

Wybierz Datę:    

        

Radom (12485)

Dane terminowe dla wybranej stacji. Kliknij datę, aby otrzymać dane z tego terminu dla wszystkich stacji.

TemperaturaZachmurzenieWiatrCiśnienieOpadyPogoda
 Data t td wb tx tn tg rh  Nt Nl Cl Cm Ch ws wd g1 g2 wx mslp ppp ch 24h 12h t ww ww w1 w2  
2019-07-05 23:00:00 14.2 10.0 11.5--- 7610.0wx-wx4wx---1012.1 990.2 0.2---------
2019-07-05 22:00:00 14.9 10.1 11.9--- 7340.0wx-wx4wx---1011.8 990.0 0.1---------
2019-07-05 21:00:00 15.6 10.2 12.2--- 7010.0wx-wx4wx---1011.8 990.0 0.1---------
2019-07-05 20:00:00 15.8 10.1 12.2--- 6910.0wxwxwx4wx---1011.7 989.9 0.0---------
2019-07-05 19:00:00 16.5 10.4 12.7--- 6710.0wxwxwx3wx---1011.6 989.9 0.5---------
2019-07-05 18:00:00 17.5 10.2 13.0--- 6210.0wxwxwx4wx---1011.4 989.8 0.1---------
2019-07-05 17:00:00 17.4 10.8 13.3--- 6510.0wxwxwx5wx---1011.5 989.9 0.3---------
2019-07-05 16:00:00 18.1 11.7 14.1--- 6610.0wxwxwx5wx---1011.0 989.4 -0.5---------
2019-07-05 15:00:00 17.9 12.6 14.5--- 7110.0wxwxwx5wx---1011.2 989.6 -0.2---------
2019-07-05 14:00:00 19.5 10.0 13.8--- 5410.0wxwxwx4wx---1011.0 989.5 -0.6---------
2019-07-05 13:00:00 17.7 11.1 13.6--- 6510.0wxwxwx6wx---1011.5 989.9 -0.3---wx---
2019-07-05 12:00:00 20.3 8.3 13.4--- 4610.0wxwxwxwx7wx---1011.1 989.7 -0.8---------
2019-07-05 11:00:00 20.2 8.2 13.3--- 4610.0wxwxwxwx6wx---1011.5 990.1 -0.4---------
2019-07-05 10:00:00 20.5 8.2 13.5--- 4510.0wxwxwxwx6wx---1011.6 990.2 -0.9---------
2019-07-05 09:00:00 20.4 6.4 12.7--- 4010.0wx-wx5wx---1011.9 990.5 -0.8---------
2019-07-05 08:00:00 18.6 6.1 11.7--- 4410.0wx-wx5wx---1012.7 991.1 -0.9---------
2019-07-05 07:00:00 18.6 6.1 11.7--- 4410.0wx-wx4wx---1012.7 991.1 -0.9---------
2019-07-05 06:00:00 17.3 5.3 10.8--- 4510.0wx-wx4wx---1013.0 991.3 -1.1---------
2019-07-05 05:00:00 15.3 5.5 9.9--- 5210.0wx-wxwx3wx---1013.4 991.6 -1.4---------
2019-07-05 04:00:00 12.2 6.7 8.9--- 6910.0wx-wx3wx---1014.2 992.1 -1.8---------
2019-07-05 03:00:00 11.6 6.3 8.4--- 7010.0wx-wx2wx---1015.2 993.0 -1.7---------
2019-07-05 02:00:00 11.6 6.3 8.4--- 7010.0wx-wx2wx---1015.2 993.0 -1.7---------
2019-07-05 01:00:00 11.3 6.8 8.6--- 7410.0wx-wx2wx---1015.8 993.6 -1.3---------
2019-07-05 00:00:00 11.8 6.5 8.6--- 7010.0wx-wx2wx---1016.5 994.3 -1.0---------
2019-07-04 23:00:00 12.3 6.4 8.8--- 6710.0wx-wx2wx---1016.7 994.6 -0.9---------
2019-07-04 22:00:00 13.4 6.5 9.4--- 6310.0wx-wx2wx---1017.0 994.9 -0.8---------
2019-07-04 21:00:00 14.4 6.5 9.9--- 5910.0wx-wx1wx---1017.3 995.3 -0.4---------
2019-07-04 20:00:00 15.2 6.0 10.0--- 5410.0wx-wx1wx---1017.4 995.5 -0.4---------
2019-07-04 19:00:00 18.8 3.4 10.8--- 3610.0wx-wx1wx---1017.4 995.7 -0.5---------
2019-07-04 18:00:00 20.2 3.5 11.5--- 3310.0wx-wx3wx---1017.4 995.8 -0.8---------
2019-07-04 17:00:00 21.1 2.9 11.7--- 3010.0wx-wxwx6wx---1017.4 995.9 -1.1---------
2019-07-04 16:00:00 21.5 3.2 12.0--- 3010.0wxwxwx6wx---1017.8 996.3 -1.1---------
2019-07-04 15:00:00 21.5 3.7 12.1--- 3110.0wxwxwx7wx---1018.1 996.6 -1.2---------
2019-07-04 14:00:00 21.2 4.3 12.2--- 3310.0wxwxwx5wx---1018.9 997.4 -0.9---------
2019-07-04 13:00:00 21.2 4.3 12.2--- 3310.0wxwxwx6wx---1018.9 997.4 -0.9---------
2019-07-04 12:00:00 20.1 2.9 11.2--- 3210.0wxwxwx6wx---1019.4 997.8 -0.6---------
2019-07-04 11:00:00 20.4 3.6 11.6--- 3310.0wxwxwx6wx---1019.7 998.1 -0.7---------
2019-07-04 10:00:00 19.3 3.9 11.2--- 3610.0wxwxwx5wx---1020.0 998.3 -0.7---------
2019-07-04 09:00:00 18.9 3.5 10.9--- 3610.0wxwxwx5wx---1020.1 998.4 -0.7---------
2019-07-04 08:00:00 17.7 4.0 10.5--- 4010.0wxwxwx4wx---1020.6 998.8 -0.2---------
2019-07-04 07:00:00 17.4 5.7 11.0--- 4610.0wxwxwxwx4wx---1020.8 999.0 0.1---------
2019-07-04 06:00:00 15.8 5.1 10.0--- 4910.0wx-wx2wx---1021.1 999.1 0.2---------
2019-07-04 05:00:00 14.2 7.3 10.1--- 6310.0wx-wx3wx---1021.1 999.0 0.2---------
2019-07-04 04:00:00 11.1 7.6 8.9--- 7910.0wx-wx2wx---1021.4 999.1 0.5---------
2019-07-04 03:00:00 9.2 5.8 7.1--- 7910.0wx-wx3wx---1021.4 998.9 0.3---------
2019-07-04 02:00:00 9.4 5.8 7.2--- 7810.0wx-2wx---1021.3 998.8 0.3---------
2019-07-04 01:00:00 9.7 5.7 7.3--- 7610.0wx-2wx---1021.0 998.6 0.2---------
2019-07-04 00:00:00 11.8 5.2 8.0--- 6410.0wx-wx2wx---1020.9 998.6 0.5---------
4.7 ms

 

Print Friendly, PDF & Email